sensor_id;sensor_type;location;lat;lon;timestamp;P1;durP1;ratioP1;P2;durP2;ratioP2
49854;SDS011;35752;52.164;21.244;2023-04-07T00:00:20;51.72;;;29.73;;
49854;SDS011;35752;52.164;21.244;2023-04-07T00:02:46;54.75;;;31.17;;
49854;SDS011;35752;52.164;21.244;2023-04-07T00:05:12;56.53;;;32.65;;
49854;SDS011;35752;52.164;21.244;2023-04-07T00:07:39;50.75;;;30.10;;
49854;SDS011;35752;52.164;21.244;2023-04-07T00:10:04;54.30;;;33.03;;
49854;SDS011;35752;52.164;21.244;2023-04-07T00:12:31;52.83;;;31.75;;
49854;SDS011;35752;52.164;21.244;2023-04-07T00:14:57;61.90;;;32.35;;
49854;SDS011;35752;52.164;21.244;2023-04-07T00:17:22;50.20;;;29.40;;
49854;SDS011;35752;52.164;21.244;2023-04-07T00:19:48;55.65;;;32.45;;
49854;SDS011;35752;52.164;21.244;2023-04-07T00:22:13;50.63;;;30.38;;
49854;SDS011;35752;52.164;21.244;2023-04-07T00:24:39;56.67;;;31.20;;
49854;SDS011;35752;52.164;21.244;2023-04-07T00:27:04;52.20;;;30.75;;
49854;SDS011;35752;52.164;21.244;2023-04-07T00:29:30;50.83;;;31.30;;
49854;SDS011;35752;52.164;21.244;2023-04-07T00:31:56;50.88;;;31.67;;
49854;SDS011;35752;52.164;21.244;2023-04-07T00:34:21;48.25;;;30.35;;
49854;SDS011;35752;52.164;21.244;2023-04-07T00:36:47;56.03;;;32.40;;
49854;SDS011;35752;52.164;21.244;2023-04-07T00:39:16;49.10;;;32.17;;
49854;SDS011;35752;52.164;21.244;2023-04-07T00:41:43;53.42;;;31.40;;
49854;SDS011;35752;52.164;21.244;2023-04-07T00:44:09;61.97;;;33.05;;
49854;SDS011;35752;52.164;21.244;2023-04-07T00:46:35;53.25;;;32.50;;
49854;SDS011;35752;52.164;21.244;2023-04-07T00:49:01;57.75;;;31.23;;
49854;SDS011;35752;52.164;21.244;2023-04-07T00:51:26;59.97;;;32.17;;
49854;SDS011;35752;52.164;21.244;2023-04-07T00:53:53;56.30;;;31.90;;
49854;SDS011;35752;52.164;21.244;2023-04-07T00:56:19;48.78;;;30.23;;
49854;SDS011;35752;52.164;21.244;2023-04-07T00:58:45;57.85;;;33.50;;
49854;SDS011;35752;52.164;21.244;2023-04-07T01:01:29;52.88;;;31.40;;
49854;SDS011;35752;52.164;21.244;2023-04-07T01:04:25;61.33;;;33.63;;
49854;SDS011;35752;52.164;21.244;2023-04-07T01:07:05;58.95;;;32.75;;
49854;SDS011;35752;52.164;21.244;2023-04-07T01:09:45;50.05;;;31.25;;
49854;SDS011;35752;52.164;21.244;2023-04-07T01:14:53;53.75;;;31.17;;
49854;SDS011;35752;52.164;21.244;2023-04-07T01:17:23;58.78;;;33.35;;
49854;SDS011;35752;52.164;21.244;2023-04-07T01:22:17;56.95;;;33.53;;
49854;SDS011;35752;52.164;21.244;2023-04-07T01:25:32;56.50;;;34.22;;
49854;SDS011;35752;52.164;21.244;2023-04-07T01:32:44;63.42;;;34.92;;
49854;SDS011;35752;52.164;21.244;2023-04-07T01:35:14;65.78;;;35.33;;
49854;SDS011;35752;52.164;21.244;2023-04-07T01:37:41;64.75;;;36.20;;
49854;SDS011;35752;52.164;21.244;2023-04-07T01:40:10;61.53;;;36.40;;
49854;SDS011;35752;52.164;21.244;2023-04-07T01:42:36;67.00;;;37.78;;
49854;SDS011;35752;52.164;21.244;2023-04-07T01:45:03;72.20;;;37.70;;
49854;SDS011;35752;52.164;21.244;2023-04-07T01:47:31;73.35;;;39.85;;
49854;SDS011;35752;52.164;21.244;2023-04-07T01:49:58;64.13;;;37.20;;
49854;SDS011;35752;52.164;21.244;2023-04-07T01:52:28;61.72;;;37.28;;
49854;SDS011;35752;52.164;21.244;2023-04-07T01:54:55;72.38;;;38.30;;
49854;SDS011;35752;52.164;21.244;2023-04-07T01:57:21;69.93;;;38.65;;
49854;SDS011;35752;52.164;21.244;2023-04-07T01:59:47;66.70;;;38.45;;
49854;SDS011;35752;52.164;21.244;2023-04-07T02:02:12;73.72;;;39.67;;
49854;SDS011;35752;52.164;21.244;2023-04-07T02:04:54;63.83;;;36.95;;
49854;SDS011;35752;52.164;21.244;2023-04-07T02:10:10;66.78;;;37.00;;
49854;SDS011;35752;52.164;21.244;2023-04-07T02:12:39;73.78;;;39.28;;
49854;SDS011;35752;52.164;21.244;2023-04-07T02:15:09;72.72;;;41.75;;
49854;SDS011;35752;52.164;21.244;2023-04-07T02:17:37;70.28;;;40.25;;
49854;SDS011;35752;52.164;21.244;2023-04-07T02:20:07;68.55;;;38.85;;
49854;SDS011;35752;52.164;21.244;2023-04-07T02:22:36;74.53;;;40.78;;
49854;SDS011;35752;52.164;21.244;2023-04-07T02:25:19;84.97;;;39.20;;
49854;SDS011;35752;52.164;21.244;2023-04-07T02:27:52;72.65;;;39.63;;
49854;SDS011;35752;52.164;21.244;2023-04-07T02:30:18;75.97;;;41.15;;
49854;SDS011;35752;52.164;21.244;2023-04-07T02:32:44;79.40;;;42.22;;
49854;SDS011;35752;52.164;21.244;2023-04-07T02:35:10;72.80;;;40.70;;
49854;SDS011;35752;52.164;21.244;2023-04-07T02:37:36;75.50;;;40.35;;
49854;SDS011;35752;52.164;21.244;2023-04-07T02:40:03;78.53;;;41.65;;
49854;SDS011;35752;52.164;21.244;2023-04-07T02:42:30;79.10;;;41.55;;
49854;SDS011;35752;52.164;21.244;2023-04-07T02:44:55;77.05;;;40.97;;
49854;SDS011;35752;52.164;21.244;2023-04-07T02:47:21;79.60;;;41.92;;
49854;SDS011;35752;52.164;21.244;2023-04-07T02:49:47;68.50;;;40.42;;
49854;SDS011;35752;52.164;21.244;2023-04-07T02:52:12;77.57;;;41.92;;
49854;SDS011;35752;52.164;21.244;2023-04-07T02:54:38;70.63;;;41.40;;
49854;SDS011;35752;52.164;21.244;2023-04-07T02:57:03;74.90;;;41.28;;
49854;SDS011;35752;52.164;21.244;2023-04-07T02:59:29;72.70;;;41.30;;
49854;SDS011;35752;52.164;21.244;2023-04-07T03:01:55;69.43;;;40.42;;
49854;SDS011;35752;52.164;21.244;2023-04-07T03:04:21;77.28;;;42.67;;
49854;SDS011;35752;52.164;21.244;2023-04-07T03:06:46;68.45;;;40.38;;
49854;SDS011;35752;52.164;21.244;2023-04-07T03:09:13;70.97;;;40.97;;
49854;SDS011;35752;52.164;21.244;2023-04-07T03:11:39;79.35;;;43.97;;
49854;SDS011;35752;52.164;21.244;2023-04-07T03:14:05;77.72;;;43.42;;
49854;SDS011;35752;52.164;21.244;2023-04-07T03:16:31;77.60;;;42.25;;
49854;SDS011;35752;52.164;21.244;2023-04-07T03:18:57;81.93;;;42.33;;
49854;SDS011;35752;52.164;21.244;2023-04-07T03:21:22;78.10;;;43.88;;
49854;SDS011;35752;52.164;21.244;2023-04-07T03:23:48;89.80;;;46.65;;
49854;SDS011;35752;52.164;21.244;2023-04-07T03:26:14;87.70;;;46.05;;
49854;SDS011;35752;52.164;21.244;2023-04-07T03:28:39;80.00;;;45.30;;
49854;SDS011;35752;52.164;21.244;2023-04-07T03:31:05;78.75;;;45.67;;
49854;SDS011;35752;52.164;21.244;2023-04-07T03:33:31;87.78;;;45.70;;
49854;SDS011;35752;52.164;21.244;2023-04-07T03:35:56;88.30;;;45.33;;
49854;SDS011;35752;52.164;21.244;2023-04-07T03:38:22;92.07;;;47.33;;
49854;SDS011;35752;52.164;21.244;2023-04-07T03:40:47;81.18;;;46.35;;
49854;SDS011;35752;52.164;21.244;2023-04-07T03:43:13;90.20;;;46.33;;
49854;SDS011;35752;52.164;21.244;2023-04-07T03:45:40;86.70;;;46.28;;
49854;SDS011;35752;52.164;21.244;2023-04-07T03:48:06;88.47;;;45.95;;
49854;SDS011;35752;52.164;21.244;2023-04-07T03:50:39;79.57;;;45.25;;
49854;SDS011;35752;52.164;21.244;2023-04-07T03:53:06;76.80;;;45.10;;
49854;SDS011;35752;52.164;21.244;2023-04-07T03:55:32;87.05;;;46.45;;
49854;SDS011;35752;52.164;21.244;2023-04-07T03:57:58;78.95;;;45.63;;
49854;SDS011;35752;52.164;21.244;2023-04-07T04:00:24;78.55;;;44.90;;
49854;SDS011;35752;52.164;21.244;2023-04-07T04:02:50;81.78;;;45.95;;
49854;SDS011;35752;52.164;21.244;2023-04-07T04:05:16;85.72;;;46.20;;
49854;SDS011;35752;52.164;21.244;2023-04-07T04:07:42;87.22;;;47.35;;
49854;SDS011;35752;52.164;21.244;2023-04-07T04:10:07;77.05;;;45.72;;
49854;SDS011;35752;52.164;21.244;2023-04-07T04:12:33;78.32;;;45.42;;
49854;SDS011;35752;52.164;21.244;2023-04-07T04:14:59;76.30;;;45.13;;
49854;SDS011;35752;52.164;21.244;2023-04-07T04:17:24;76.38;;;45.75;;
49854;SDS011;35752;52.164;21.244;2023-04-07T04:19:50;73.78;;;45.65;;
49854;SDS011;35752;52.164;21.244;2023-04-07T04:22:16;73.75;;;44.38;;
49854;SDS011;35752;52.164;21.244;2023-04-07T04:24:43;75.75;;;45.80;;
49854;SDS011;35752;52.164;21.244;2023-04-07T04:27:09;75.20;;;43.13;;
49854;SDS011;35752;52.164;21.244;2023-04-07T04:29:35;71.38;;;43.15;;
49854;SDS011;35752;52.164;21.244;2023-04-07T04:32:00;70.70;;;43.90;;
49854;SDS011;35752;52.164;21.244;2023-04-07T04:34:26;71.57;;;44.17;;
49854;SDS011;35752;52.164;21.244;2023-04-07T04:36:52;74.13;;;45.65;;
49854;SDS011;35752;52.164;21.244;2023-04-07T04:39:17;78.00;;;44.13;;
49854;SDS011;35752;52.164;21.244;2023-04-07T04:41:43;73.72;;;43.00;;
49854;SDS011;35752;52.164;21.244;2023-04-07T04:44:09;75.82;;;44.13;;
49854;SDS011;35752;52.164;21.244;2023-04-07T04:46:36;72.88;;;44.60;;
49854;SDS011;35752;52.164;21.244;2023-04-07T04:49:01;71.07;;;43.95;;
49854;SDS011;35752;52.164;21.244;2023-04-07T04:51:27;75.70;;;45.95;;
49854;SDS011;35752;52.164;21.244;2023-04-07T04:53:53;70.22;;;44.50;;
49854;SDS011;35752;52.164;21.244;2023-04-07T04:56:18;70.60;;;44.72;;
49854;SDS011;35752;52.164;21.244;2023-04-07T04:58:45;81.53;;;47.13;;
49854;SDS011;35752;52.164;21.244;2023-04-07T05:01:11;77.25;;;46.63;;
49854;SDS011;35752;52.164;21.244;2023-04-07T05:03:37;81.05;;;49.28;;
49854;SDS011;35752;52.164;21.244;2023-04-07T05:06:03;78.70;;;45.90;;
49854;SDS011;35752;52.164;21.244;2023-04-07T05:08:29;77.50;;;46.67;;
49854;SDS011;35752;52.164;21.244;2023-04-07T05:10:55;73.20;;;45.10;;
49854;SDS011;35752;52.164;21.244;2023-04-07T05:13:21;69.43;;;43.05;;
49854;SDS011;35752;52.164;21.244;2023-04-07T05:15:46;69.45;;;44.67;;
49854;SDS011;35752;52.164;21.244;2023-04-07T05:18:12;72.25;;;45.65;;
49854;SDS011;35752;52.164;21.244;2023-04-07T05:20:37;71.30;;;43.38;;
49854;SDS011;35752;52.164;21.244;2023-04-07T05:23:03;68.90;;;43.85;;
49854;SDS011;35752;52.164;21.244;2023-04-07T05:25:29;71.85;;;45.38;;
49854;SDS011;35752;52.164;21.244;2023-04-07T05:27:55;68.43;;;43.80;;
49854;SDS011;35752;52.164;21.244;2023-04-07T05:30:21;66.05;;;43.30;;
49854;SDS011;35752;52.164;21.244;2023-04-07T05:32:47;71.53;;;45.92;;
49854;SDS011;35752;52.164;21.244;2023-04-07T05:35:13;66.15;;;42.28;;
49854;SDS011;35752;52.164;21.244;2023-04-07T05:37:38;65.25;;;42.40;;
49854;SDS011;35752;52.164;21.244;2023-04-07T05:40:04;64.00;;;42.55;;
49854;SDS011;35752;52.164;21.244;2023-04-07T05:42:31;65.63;;;42.75;;
49854;SDS011;35752;52.164;21.244;2023-04-07T05:44:56;60.67;;;40.75;;
49854;SDS011;35752;52.164;21.244;2023-04-07T05:47:22;62.55;;;43.25;;
49854;SDS011;35752;52.164;21.244;2023-04-07T05:49:47;63.65;;;40.95;;
49854;SDS011;35752;52.164;21.244;2023-04-07T05:52:13;63.42;;;42.30;;
49854;SDS011;35752;52.164;21.244;2023-04-07T05:54:39;61.85;;;40.65;;
49854;SDS011;35752;52.164;21.244;2023-04-07T05:57:05;56.85;;;39.90;;
49854;SDS011;35752;52.164;21.244;2023-04-07T05:59:32;65.40;;;41.45;;
49854;SDS011;35752;52.164;21.244;2023-04-07T06:01:58;60.97;;;41.10;;
49854;SDS011;35752;52.164;21.244;2023-04-07T06:04:23;57.17;;;39.50;;
49854;SDS011;35752;52.164;21.244;2023-04-07T06:06:49;59.05;;;39.78;;
49854;SDS011;35752;52.164;21.244;2023-04-07T06:09:16;58.10;;;39.35;;
49854;SDS011;35752;52.164;21.244;2023-04-07T06:11:42;56.88;;;41.10;;
49854;SDS011;35752;52.164;21.244;2023-04-07T06:14:08;55.80;;;40.15;;
49854;SDS011;35752;52.164;21.244;2023-04-07T06:16:34;53.88;;;38.75;;
49854;SDS011;35752;52.164;21.244;2023-04-07T06:19:00;56.58;;;39.38;;
49854;SDS011;35752;52.164;21.244;2023-04-07T06:21:25;50.50;;;36.08;;
49854;SDS011;35752;52.164;21.244;2023-04-07T06:23:51;51.78;;;37.88;;
49854;SDS011;35752;52.164;21.244;2023-04-07T06:26:16;49.78;;;36.88;;
49854;SDS011;35752;52.164;21.244;2023-04-07T06:28:42;48.00;;;36.55;;
49854;SDS011;35752;52.164;21.244;2023-04-07T06:31:08;45.33;;;35.00;;
49854;SDS011;35752;52.164;21.244;2023-04-07T06:33:33;48.88;;;36.60;;
49854;SDS011;35752;52.164;21.244;2023-04-07T06:35:59;43.55;;;34.58;;
49854;SDS011;35752;52.164;21.244;2023-04-07T06:38:25;44.38;;;33.83;;
49854;SDS011;35752;52.164;21.244;2023-04-07T06:40:50;43.03;;;32.95;;
49854;SDS011;35752;52.164;21.244;2023-04-07T06:43:16;46.30;;;32.95;;
49854;SDS011;35752;52.164;21.244;2023-04-07T06:45:42;47.42;;;34.20;;
49854;SDS011;35752;52.164;21.244;2023-04-07T06:48:07;45.30;;;33.58;;
49854;SDS011;35752;52.164;21.244;2023-04-07T06:50:34;41.33;;;32.38;;
49854;SDS011;35752;52.164;21.244;2023-04-07T06:53:01;38.95;;;31.30;;
49854;SDS011;35752;52.164;21.244;2023-04-07T06:55:27;37.97;;;30.88;;
49854;SDS011;35752;52.164;21.244;2023-04-07T06:57:52;40.47;;;31.90;;
49854;SDS011;35752;52.164;21.244;2023-04-07T07:00:18;45.58;;;33.85;;
49854;SDS011;35752;52.164;21.244;2023-04-07T07:02:44;40.13;;;32.58;;
49854;SDS011;35752;52.164;21.244;2023-04-07T07:05:09;42.97;;;33.47;;
49854;SDS011;35752;52.164;21.244;2023-04-07T07:07:35;42.72;;;32.90;;
49854;SDS011;35752;52.164;21.244;2023-04-07T07:10:02;43.83;;;33.30;;
49854;SDS011;35752;52.164;21.244;2023-04-07T07:12:28;39.65;;;31.38;;
49854;SDS011;35752;52.164;21.244;2023-04-07T07:14:53;42.60;;;33.30;;
49854;SDS011;35752;52.164;21.244;2023-04-07T07:17:19;45.70;;;32.70;;
49854;SDS011;35752;52.164;21.244;2023-04-07T07:19:45;40.38;;;31.23;;
49854;SDS011;35752;52.164;21.244;2023-04-07T07:22:10;42.25;;;31.70;;
49854;SDS011;35752;52.164;21.244;2023-04-07T07:24:36;42.42;;;30.75;;
49854;SDS011;35752;52.164;21.244;2023-04-07T07:27:01;38.63;;;32.00;;
49854;SDS011;35752;52.164;21.244;2023-04-07T07:29:27;38.95;;;32.50;;
49854;SDS011;35752;52.164;21.244;2023-04-07T07:31:53;42.33;;;32.42;;
49854;SDS011;35752;52.164;21.244;2023-04-07T07:34:19;40.08;;;32.28;;
49854;SDS011;35752;52.164;21.244;2023-04-07T07:36:44;43.38;;;31.23;;
49854;SDS011;35752;52.164;21.244;2023-04-07T07:39:10;40.47;;;32.47;;
49854;SDS011;35752;52.164;21.244;2023-04-07T07:41:36;41.13;;;31.52;;
49854;SDS011;35752;52.164;21.244;2023-04-07T07:44:01;40.97;;;31.33;;
49854;SDS011;35752;52.164;21.244;2023-04-07T07:46:27;35.47;;;29.73;;
49854;SDS011;35752;52.164;21.244;2023-04-07T07:48:53;34.67;;;26.90;;
49854;SDS011;35752;52.164;21.244;2023-04-07T07:51:18;30.17;;;26.00;;
49854;SDS011;35752;52.164;21.244;2023-04-07T07:53:44;32.00;;;25.60;;
49854;SDS011;35752;52.164;21.244;2023-04-07T07:56:10;35.63;;;26.63;;
49854;SDS011;35752;52.164;21.244;2023-04-07T07:58:36;38.47;;;28.55;;
49854;SDS011;35752;52.164;21.244;2023-04-07T08:01:01;33.15;;;24.58;;
49854;SDS011;35752;52.164;21.244;2023-04-07T08:03:27;31.20;;;23.20;;
49854;SDS011;35752;52.164;21.244;2023-04-07T08:05:53;32.72;;;25.27;;
49854;SDS011;35752;52.164;21.244;2023-04-07T08:08:18;30.83;;;26.73;;
49854;SDS011;35752;52.164;21.244;2023-04-07T08:10:44;27.45;;;24.40;;
49854;SDS011;35752;52.164;21.244;2023-04-07T08:13:10;30.48;;;23.70;;
49854;SDS011;35752;52.164;21.244;2023-04-07T08:15:35;30.55;;;23.70;;
49854;SDS011;35752;52.164;21.244;2023-04-07T08:18:01;29.83;;;23.80;;
49854;SDS011;35752;52.164;21.244;2023-04-07T08:20:29;32.25;;;23.30;;
49854;SDS011;35752;52.164;21.244;2023-04-07T08:22:55;28.35;;;23.63;;
49854;SDS011;35752;52.164;21.244;2023-04-07T08:25:21;30.48;;;23.60;;
49854;SDS011;35752;52.164;21.244;2023-04-07T08:27:47;27.27;;;22.35;;
49854;SDS011;35752;52.164;21.244;2023-04-07T08:30:13;28.40;;;22.90;;
49854;SDS011;35752;52.164;21.244;2023-04-07T08:32:39;29.67;;;21.27;;
49854;SDS011;35752;52.164;21.244;2023-04-07T08:35:06;26.50;;;22.00;;
49854;SDS011;35752;52.164;21.244;2023-04-07T08:37:32;25.25;;;21.58;;
49854;SDS011;35752;52.164;21.244;2023-04-07T08:39:59;24.67;;;20.70;;
49854;SDS011;35752;52.164;21.244;2023-04-07T08:42:26;25.08;;;19.42;;
49854;SDS011;35752;52.164;21.244;2023-04-07T08:44:57;28.60;;;21.17;;
49854;SDS011;35752;52.164;21.244;2023-04-07T08:47:27;26.58;;;21.63;;
49854;SDS011;35752;52.164;21.244;2023-04-07T08:49:56;24.90;;;21.05;;
49854;SDS011;35752;52.164;21.244;2023-04-07T08:52:25;23.35;;;20.45;;
49854;SDS011;35752;52.164;21.244;2023-04-07T08:55:12;25.13;;;21.08;;
49854;SDS011;35752;52.164;21.244;2023-04-07T08:57:38;21.83;;;19.50;;
49854;SDS011;35752;52.164;21.244;2023-04-07T09:00:05;26.08;;;22.60;;
49854;SDS011;35752;52.164;21.244;2023-04-07T09:02:32;29.27;;;22.15;;
49854;SDS011;35752;52.164;21.244;2023-04-07T09:04:58;22.65;;;19.73;;
49854;SDS011;35752;52.164;21.244;2023-04-07T09:07:25;31.88;;;21.35;;
49854;SDS011;35752;52.164;21.244;2023-04-07T09:09:51;24.13;;;20.50;;
49854;SDS011;35752;52.164;21.244;2023-04-07T09:12:16;23.38;;;20.35;;
49854;SDS011;35752;52.164;21.244;2023-04-07T09:14:42;25.23;;;21.98;;
49854;SDS011;35752;52.164;21.244;2023-04-07T09:17:08;26.33;;;21.52;;
49854;SDS011;35752;52.164;21.244;2023-04-07T09:19:33;25.92;;;20.60;;
49854;SDS011;35752;52.164;21.244;2023-04-07T09:21:59;24.00;;;21.42;;
49854;SDS011;35752;52.164;21.244;2023-04-07T09:24:26;27.25;;;21.50;;
49854;SDS011;35752;52.164;21.244;2023-04-07T09:27:26;24.80;;;21.40;;
49854;SDS011;35752;52.164;21.244;2023-04-07T09:29:45;24.85;;;21.30;;
49854;SDS011;35752;52.164;21.244;2023-04-07T09:32:11;25.73;;;22.45;;
49854;SDS011;35752;52.164;21.244;2023-04-07T09:35:00;31.83;;;20.80;;
49854;SDS011;35752;52.164;21.244;2023-04-07T09:37:26;24.98;;;19.50;;
49854;SDS011;35752;52.164;21.244;2023-04-07T09:39:51;24.50;;;19.08;;
49854;SDS011;35752;52.164;21.244;2023-04-07T09:42:20;28.98;;;19.67;;
49854;SDS011;35752;52.164;21.244;2023-04-07T09:44:46;22.52;;;17.88;;
49854;SDS011;35752;52.164;21.244;2023-04-07T09:47:12;22.58;;;17.63;;
49854;SDS011;35752;52.164;21.244;2023-04-07T09:49:48;21.65;;;17.30;;
49854;SDS011;35752;52.164;21.244;2023-04-07T09:52:16;19.23;;;17.20;;
49854;SDS011;35752;52.164;21.244;2023-04-07T09:54:44;19.33;;;17.33;;
49854;SDS011;35752;52.164;21.244;2023-04-07T09:57:11;23.60;;;18.48;;
49854;SDS011;35752;52.164;21.244;2023-04-07T09:59:39;20.83;;;16.83;;
49854;SDS011;35752;52.164;21.244;2023-04-07T10:02:09;24.92;;;17.60;;
49854;SDS011;35752;52.164;21.244;2023-04-07T10:04:36;20.95;;;15.77;;
49854;SDS011;35752;52.164;21.244;2023-04-07T10:07:02;19.02;;;16.10;;
49854;SDS011;35752;52.164;21.244;2023-04-07T10:09:29;21.90;;;15.88;;
49854;SDS011;35752;52.164;21.244;2023-04-07T10:11:56;20.30;;;16.67;;
49854;SDS011;35752;52.164;21.244;2023-04-07T10:14:30;23.75;;;15.85;;
49854;SDS011;35752;52.164;21.244;2023-04-07T10:16:56;19.95;;;16.50;;
49854;SDS011;35752;52.164;21.244;2023-04-07T10:19:25;19.38;;;16.33;;
49854;SDS011;35752;52.164;21.244;2023-04-07T10:21:56;19.02;;;15.82;;
49854;SDS011;35752;52.164;21.244;2023-04-07T10:27:04;17.10;;;14.00;;
49854;SDS011;35752;52.164;21.244;2023-04-07T10:29:36;20.15;;;14.52;;
49854;SDS011;35752;52.164;21.244;2023-04-07T10:32:05;19.00;;;14.77;;
49854;SDS011;35752;52.164;21.244;2023-04-07T10:37:17;18.83;;;13.40;;
49854;SDS011;35752;52.164;21.244;2023-04-07T10:39:46;18.08;;;13.70;;
49854;SDS011;35752;52.164;21.244;2023-04-07T10:47:32;15.68;;;12.65;;
49854;SDS011;35752;52.164;21.244;2023-04-07T10:52:45;17.55;;;12.68;;
49854;SDS011;35752;52.164;21.244;2023-04-07T10:58:17;16.55;;;12.77;;
49854;SDS011;35752;52.164;21.244;2023-04-07T11:03:41;19.00;;;12.80;;
49854;SDS011;35752;52.164;21.244;2023-04-07T11:06:16;16.00;;;12.70;;
49854;SDS011;35752;52.164;21.244;2023-04-07T11:11:09;17.27;;;13.18;;
49854;SDS011;35752;52.164;21.244;2023-04-07T11:16:10;16.60;;;12.20;;
49854;SDS011;35752;52.164;21.244;2023-04-07T11:18:36;15.32;;;12.07;;
49854;SDS011;35752;52.164;21.244;2023-04-07T11:21:04;15.55;;;11.90;;
49854;SDS011;35752;52.164;21.244;2023-04-07T11:23:40;14.35;;;12.32;;
49854;SDS011;35752;52.164;21.244;2023-04-07T11:26:08;18.83;;;13.55;;
49854;SDS011;35752;52.164;21.244;2023-04-07T11:28:36;15.43;;;13.18;;
49854;SDS011;35752;52.164;21.244;2023-04-07T11:31:28;17.20;;;14.02;;
49854;SDS011;35752;52.164;21.244;2023-04-07T11:34:00;17.17;;;14.38;;
49854;SDS011;35752;52.164;21.244;2023-04-07T11:36:31;18.33;;;14.50;;
49854;SDS011;35752;52.164;21.244;2023-04-07T11:38:59;18.90;;;13.05;;
49854;SDS011;35752;52.164;21.244;2023-04-07T11:41:26;14.23;;;12.80;;
49854;SDS011;35752;52.164;21.244;2023-04-07T11:44:07;13.10;;;11.70;;
49854;SDS011;35752;52.164;21.244;2023-04-07T11:49:11;13.57;;;11.88;;
49854;SDS011;35752;52.164;21.244;2023-04-07T11:51:37;14.75;;;13.00;;
49854;SDS011;35752;52.164;21.244;2023-04-07T11:54:03;14.73;;;12.88;;
49854;SDS011;35752;52.164;21.244;2023-04-07T11:56:29;15.35;;;13.75;;
49854;SDS011;35752;52.164;21.244;2023-04-07T11:59:24;16.50;;;14.05;;
49854;SDS011;35752;52.164;21.244;2023-04-07T12:01:50;15.27;;;13.50;;
49854;SDS011;35752;52.164;21.244;2023-04-07T12:04:17;17.58;;;13.32;;
49854;SDS011;35752;52.164;21.244;2023-04-07T12:06:44;13.40;;;11.90;;
49854;SDS011;35752;52.164;21.244;2023-04-07T12:12:12;13.10;;;10.60;;
49854;SDS011;35752;52.164;21.244;2023-04-07T12:14:38;9.60;;;8.10;;
49854;SDS011;35752;52.164;21.244;2023-04-07T12:17:03;8.98;;;6.65;;
49854;SDS011;35752;52.164;21.244;2023-04-07T12:19:31;5.18;;;4.68;;
49854;SDS011;35752;52.164;21.244;2023-04-07T12:21:59;6.60;;;4.68;;
49854;SDS011;35752;52.164;21.244;2023-04-07T12:24:25;5.65;;;3.75;;
49854;SDS011;35752;52.164;21.244;2023-04-07T12:26:51;5.57;;;3.38;;
49854;SDS011;35752;52.164;21.244;2023-04-07T12:29:17;3.88;;;2.70;;
49854;SDS011;35752;52.164;21.244;2023-04-07T12:31:44;5.10;;;2.65;;
49854;SDS011;35752;52.164;21.244;2023-04-07T12:34:09;2.60;;;1.90;;
49854;SDS011;35752;52.164;21.244;2023-04-07T12:36:35;2.70;;;2.20;;
49854;SDS011;35752;52.164;21.244;2023-04-07T12:39:01;4.75;;;2.08;;
49854;SDS011;35752;52.164;21.244;2023-04-07T12:41:26;2.78;;;1.83;;
49854;SDS011;35752;52.164;21.244;2023-04-07T12:43:52;4.45;;;1.95;;
49854;SDS011;35752;52.164;21.244;2023-04-07T12:46:18;8.45;;;2.05;;
49854;SDS011;35752;52.164;21.244;2023-04-07T12:48:45;3.38;;;2.03;;
49854;SDS011;35752;52.164;21.244;2023-04-07T12:51:11;4.13;;;2.03;;
49854;SDS011;35752;52.164;21.244;2023-04-07T12:53:37;3.08;;;2.10;;
49854;SDS011;35752;52.164;21.244;2023-04-07T12:56:03;2.78;;;2.13;;
49854;SDS011;35752;52.164;21.244;2023-04-07T12:58:29;2.42;;;2.00;;
49854;SDS011;35752;52.164;21.244;2023-04-07T13:00:54;6.15;;;1.75;;
49854;SDS011;35752;52.164;21.244;2023-04-07T13:03:20;2.03;;;1.67;;
49854;SDS011;35752;52.164;21.244;2023-04-07T13:05:46;4.35;;;2.25;;
49854;SDS011;35752;52.164;21.244;2023-04-07T13:08:12;3.65;;;1.85;;
49854;SDS011;35752;52.164;21.244;2023-04-07T13:10:38;3.28;;;2.47;;
49854;SDS011;35752;52.164;21.244;2023-04-07T13:13:03;2.55;;;1.90;;
49854;SDS011;35752;52.164;21.244;2023-04-07T13:15:29;6.28;;;2.55;;
49854;SDS011;35752;52.164;21.244;2023-04-07T13:17:55;2.60;;;1.90;;
49854;SDS011;35752;52.164;21.244;2023-04-07T13:20:20;3.38;;;2.10;;
49854;SDS011;35752;52.164;21.244;2023-04-07T13:22:46;3.95;;;2.42;;
49854;SDS011;35752;52.164;21.244;2023-04-07T13:25:12;3.80;;;2.40;;
49854;SDS011;35752;52.164;21.244;2023-04-07T13:27:38;2.90;;;2.00;;
49854;SDS011;35752;52.164;21.244;2023-04-07T13:30:04;3.92;;;2.40;;
49854;SDS011;35752;52.164;21.244;2023-04-07T13:32:30;3.15;;;2.55;;
49854;SDS011;35752;52.164;21.244;2023-04-07T13:34:56;2.88;;;2.10;;
49854;SDS011;35752;52.164;21.244;2023-04-07T13:37:21;3.97;;;2.53;;
49854;SDS011;35752;52.164;21.244;2023-04-07T13:39:47;4.75;;;2.45;;
49854;SDS011;35752;52.164;21.244;2023-04-07T13:42:13;4.18;;;2.72;;
49854;SDS011;35752;52.164;21.244;2023-04-07T13:44:44;5.65;;;2.40;;
49854;SDS011;35752;52.164;21.244;2023-04-07T13:47:11;4.38;;;2.20;;
49854;SDS011;35752;52.164;21.244;2023-04-07T13:49:39;3.33;;;2.42;;
49854;SDS011;35752;52.164;21.244;2023-04-07T13:52:05;4.00;;;2.83;;
49854;SDS011;35752;52.164;21.244;2023-04-07T13:54:30;3.63;;;2.22;;
49854;SDS011;35752;52.164;21.244;2023-04-07T13:56:56;4.30;;;2.63;;
49854;SDS011;35752;52.164;21.244;2023-04-07T13:59:22;4.15;;;2.47;;
49854;SDS011;35752;52.164;21.244;2023-04-07T14:01:47;5.70;;;3.20;;
49854;SDS011;35752;52.164;21.244;2023-04-07T14:04:13;5.40;;;2.60;;
49854;SDS011;35752;52.164;21.244;2023-04-07T14:06:39;3.92;;;2.38;;
49854;SDS011;35752;52.164;21.244;2023-04-07T14:09:05;4.05;;;2.13;;
49854;SDS011;35752;52.164;21.244;2023-04-07T14:11:32;4.82;;;2.00;;
49854;SDS011;35752;52.164;21.244;2023-04-07T14:13:59;3.17;;;1.83;;
49854;SDS011;35752;52.164;21.244;2023-04-07T14:16:26;3.33;;;1.90;;
49854;SDS011;35752;52.164;21.244;2023-04-07T14:18:52;3.67;;;2.45;;
49854;SDS011;35752;52.164;21.244;2023-04-07T14:21:18;3.33;;;2.20;;
49854;SDS011;35752;52.164;21.244;2023-04-07T14:23:43;3.83;;;2.58;;
49854;SDS011;35752;52.164;21.244;2023-04-07T14:26:09;3.78;;;2.38;;
49854;SDS011;35752;52.164;21.244;2023-04-07T14:28:36;4.32;;;2.80;;
49854;SDS011;35752;52.164;21.244;2023-04-07T14:31:01;4.32;;;2.92;;
49854;SDS011;35752;52.164;21.244;2023-04-07T14:33:27;3.55;;;2.55;;
49854;SDS011;35752;52.164;21.244;2023-04-07T14:35:53;4.40;;;2.67;;
49854;SDS011;35752;52.164;21.244;2023-04-07T14:38:18;6.00;;;2.90;;
49854;SDS011;35752;52.164;21.244;2023-04-07T14:40:48;5.03;;;2.88;;
49854;SDS011;35752;52.164;21.244;2023-04-07T14:43:14;3.80;;;2.50;;
49854;SDS011;35752;52.164;21.244;2023-04-07T14:45:39;4.45;;;2.47;;
49854;SDS011;35752;52.164;21.244;2023-04-07T14:48:05;5.57;;;2.88;;
49854;SDS011;35752;52.164;21.244;2023-04-07T14:50:34;3.28;;;2.53;;
49854;SDS011;35752;52.164;21.244;2023-04-07T14:52:59;4.07;;;2.95;;
49854;SDS011;35752;52.164;21.244;2023-04-07T14:55:25;6.88;;;3.38;;